This is the latest recevied weather packets stored in our database for station/object BG5HLN-13. If no packets are shown the sender has not sent any weather packets the latest 10 day(s).
| Time | Temp. | Humidity | Pressure | Rain* | Wind** | Luminosity | Snow |
|---|---|---|---|---|---|---|---|
| 1777755563 | 18.89° C | 97% | 1005.9 hPa | 1.52 mm | - | - | - |
| 1777754963 | 18.89° C | 97% | 1005.7 hPa | 1.27 mm | - | - | - |
| 1777754366 | 18.89° C | 97% | 1005.6 hPa | 1.52 mm | - | - | - |
| 1777754363 | 18.89° C | 97% | 1005.5 hPa | 1.52 mm | - | - | - |
| 1777753763 | 18.89° C | 97% | 1005.4 hPa | 1.52 mm | - | - | - |
| 1777753163 | 18.89° C | 98% | 1005.4 hPa | 1.78 mm | - | - | - |
| 1777752566 | 18.89° C | 97% | 1005.4 hPa | 2.29 mm | - | - | - |
| 1777751963 | 18.89° C | 97% | 1005.2 hPa | 1.78 mm | - | - | - |
| 1777751363 | 18.89° C | 97% | 1005.1 hPa | 1.78 mm | - | - | - |
| 1777750762 | 18.89° C | 97% | 1005.1 hPa | 1.52 mm | - | - | - |
| 1777750163 | 18.33° C | 96% | 1004.9 hPa | 2.29 mm | - | - | - |
| 1777749562 | 18.89° C | 96% | 1005 hPa | 2.29 mm | - | - | - |
| 1777748962 | 18.89° C | 96% | 1004.7 hPa | 2.54 mm | - | - | - |
| 1777748363 | 18.89° C | 96% | 1004.9 hPa | 3.3 mm | - | - | - |
| 1777747763 | 18.89° C | 97% | 1005 hPa | 3.3 mm | - | - | - |
| 1777747163 | 18.89° C | 97% | 1004.9 hPa | 3.56 mm | - | - | - |
| 1777746562 | 18.89° C | 96% | 1004.8 hPa | 3.3 mm | - | - | - |
| 1777745962 | 18.89° C | 96% | 1004.7 hPa | 3.56 mm | - | - | - |
| 1777745362 | 18.89° C | 96% | 1004.7 hPa | 3.3 mm | - | - | - |
| 1777744762 | 18.89° C | 96% | 1004.7 hPa | 3.3 mm | - | - | - |
| 1777743564 | 19.44° C | 95% | 1004.7 hPa | 2.54 mm | - | - | - |
| 1777743562 | 19.44° C | 95% | 1004.7 hPa | 2.54 mm | - | - | - |
| 1777742362 | 20° C | 94% | 1004.5 hPa | 2.54 mm | - | - | - |
| 1777741162 | 20.56° C | 92% | 1004.5 hPa | 1.52 mm | - | - | - |
| 1777739962 | 21.67° C | 91% | 1004.5 hPa | 1.27 mm | - | - | - |
* Rain latest hour (hover to see other rain measurements)
** Current wind speed in m/s (hover to see current wind gust speed)